createdAt,value
2023-11-24T00:02:06.976Z,97008.19
2023-11-24T00:07:08.891Z,97001.09
2023-11-24T00:12:11.063Z,97013.38
2023-11-24T00:17:12.881Z,97024.47
2023-11-24T00:22:14.675Z,97020.91
2023-11-24T00:27:17.604Z,97038.41
2023-11-24T00:32:20.491Z,97018.78
2023-11-24T00:37:23.246Z,97030.19
2023-11-24T00:42:25.515Z,97037.13
2023-11-24T00:47:27.530Z,97052.56
2023-11-24T00:52:29.468Z,97057.88
2023-11-24T00:57:31.342Z,97063.38
2023-11-24T01:02:37.536Z,97039.41
2023-11-24T01:07:39.538Z,97027.78
2023-11-24T01:12:41.391Z,97015.41
2023-11-24T01:17:45.946Z,97018.34
2023-11-24T01:22:47.917Z,97052.22
2023-11-24T01:27:49.768Z,97042.16
2023-11-24T01:32:51.693Z,97032.13
2023-11-24T01:37:54.405Z,97027.91
2023-11-24T01:42:56.702Z,97028.84
2023-11-24T01:47:58.717Z,97033.75
2023-11-24T01:53:00.776Z,97005.53
2023-11-24T01:58:05.234Z,96996.91
2023-11-24T02:03:07.345Z,96979.84
2023-11-24T02:08:09.620Z,97003.78
2023-11-24T02:13:11.511Z,96992.22
2023-11-24T02:18:13.567Z,96996.03
2023-11-24T02:23:17.575Z,96993.78
2023-11-24T02:28:19.457Z,96997.66
2023-11-24T02:33:22.041Z,97000.31
2023-11-24T02:38:23.941Z,97016.91
2023-11-24T02:43:26.005Z,97029.28
2023-11-24T02:48:27.994Z,97019.63
2023-11-24T02:53:30.398Z,97019.09
2023-11-24T02:58:35.644Z,97014.41
2023-11-24T03:03:38.731Z,97000.63
2023-11-24T03:08:40.622Z,97002.94
2023-11-24T03:13:42.432Z,96995.34
2023-11-24T03:18:44.942Z,96994.75
2023-11-24T03:23:47.776Z,96975.44
2023-11-24T03:28:49.600Z,96974.47
2023-11-24T03:33:51.515Z,96977.59
2023-11-24T03:38:53.602Z,96978.34
2023-11-24T03:43:55.420Z,96974.44
2023-11-24T03:48:57.353Z,96983.72
2023-11-24T03:53:59.186Z,96980.59
2023-11-24T03:59:01.074Z,96975.94
2023-11-24T04:04:03.015Z,96970.63
2023-11-24T04:09:06.094Z,96982.09
2023-11-24T04:14:08.745Z,96974.75
2023-11-24T04:19:10.631Z,96967.34
2023-11-24T04:24:13.120Z,96976.56
2023-11-24T04:29:14.971Z,96973.75
2023-11-24T04:34:16.855Z,96960.69
2023-11-24T04:39:18.878Z,96941.38
2023-11-24T04:44:21.455Z,96930.25
2023-11-24T04:49:23.522Z,96947.88
2023-11-24T04:54:25.415Z,96933.19
2023-11-24T04:59:28.816Z,96944.41
2023-11-24T05:04:32.128Z,96950.88
2023-11-24T05:09:34.321Z,96937.78
2023-11-24T05:14:36.214Z,96942.44
2023-11-24T05:19:38.032Z,96941.59
2023-11-24T05:24:40.951Z,96954.63
2023-11-24T05:29:42.774Z,96947.66
2023-11-24T05:34:44.666Z,96955.59
2023-11-24T05:39:46.822Z,96953.59
2023-11-24T05:44:48.708Z,96949.78
2023-11-24T05:49:52.647Z,96948.22
2023-11-24T05:54:58.865Z,96936.66
2023-11-24T06:00:00.874Z,96943.69
2023-11-24T06:05:04.408Z,96929.84
2023-11-24T06:10:07.757Z,96912.16
2023-11-24T06:15:10.676Z,96924.84
2023-11-24T06:20:12.588Z,96916.00
2023-11-24T06:25:17.179Z,96929.78
2023-11-24T06:30:19.178Z,96916.72
2023-11-24T06:35:22.102Z,96909.78
2023-11-24T06:40:25.465Z,96907.38
2023-11-24T06:45:27.337Z,96899.13
2023-11-24T06:50:29.159Z,96893.69
2023-11-24T06:55:30.975Z,96888.00
2023-11-24T07:00:34.010Z,96886.59
2023-11-24T07:05:36.965Z,96888.25
2023-11-24T07:10:39.353Z,96914.44
2023-11-24T07:15:41.287Z,96909.03
2023-11-24T07:20:43.132Z,96892.09
2023-11-24T07:25:46.399Z,96877.84
2023-11-24T07:30:49.968Z,96874.66
2023-11-24T07:35:51.847Z,96887.56
2023-11-24T07:40:53.819Z,96879.03
2023-11-24T07:45:55.708Z,96893.63
2023-11-24T07:50:57.568Z,96898.00
2023-11-24T07:56:00.240Z,96891.38
2023-11-24T08:01:06.136Z,96896.88
2023-11-24T08:06:09.962Z,96885.91
2023-11-24T08:11:12.260Z,96886.22
2023-11-24T08:16:14.269Z,96884.34
2023-11-24T08:21:16.729Z,96871.91
2023-11-24T08:26:20.596Z,96857.25
2023-11-24T08:31:22.695Z,96846.44
2023-11-24T08:36:26.817Z,96857.00
2023-11-24T08:41:35.471Z,96865.22
2023-11-24T08:46:43.808Z,96859.28
2023-11-24T08:51:45.762Z,96850.78
2023-11-24T08:56:47.636Z,96849.09
2023-11-24T09:01:51.004Z,96854.38
2023-11-24T09:06:52.939Z,96869.81
2023-11-24T09:11:54.799Z,96872.47
2023-11-24T09:16:57.898Z,96852.03
2023-11-24T09:22:01.477Z,96853.44
2023-11-24T09:27:04.579Z,96847.22
2023-11-24T09:32:06.780Z,96848.56
2023-11-24T09:37:08.623Z,96840.22
2023-11-24T09:42:15.054Z,96832.66
2023-11-24T09:47:20.943Z,96840.88
2023-11-24T09:52:25.342Z,96841.84
2023-11-24T09:57:27.204Z,96833.31
2023-11-24T10:02:29.892Z,96820.19
2023-11-24T10:07:32.030Z,96804.69
2023-11-24T10:12:35.104Z,96773.03
2023-11-24T10:17:38.327Z,96777.53
2023-11-24T10:22:40.521Z,96778.50
2023-11-24T10:27:42.506Z,96758.16
2023-11-24T10:32:48.674Z,96744.41
2023-11-24T10:37:50.988Z,96748.78
2023-11-24T10:42:55.414Z,96736.19
2023-11-24T10:48:11.145Z,96730.13
2023-11-24T10:53:32.256Z,96707.19
2023-11-24T10:58:34.658Z,96704.75
2023-11-24T11:03:37.382Z,96694.63
2023-11-24T11:08:46.208Z,96701.34
2023-11-24T11:13:48.660Z,96701.06
2023-11-24T11:18:51.217Z,96702.56
2023-11-24T11:23:58.002Z,96683.19
2023-11-24T11:28:59.785Z,96679.41
2023-11-24T11:34:17.398Z,96663.91
2023-11-24T11:39:27.857Z,96664.94
2023-11-24T11:44:36.303Z,96670.34
2023-11-24T11:49:41.834Z,96650.41
2023-11-24T11:54:46.702Z,96643.22
2023-11-24T11:59:51.763Z,96658.63
2023-11-24T12:04:53.777Z,96638.47
2023-11-24T12:09:55.747Z,96627.69
2023-11-24T12:14:57.893Z,96623.44
2023-11-24T12:20:00.363Z,96609.53
2023-11-24T12:25:03.498Z,96632.75
2023-11-24T12:30:06.665Z,96622.78
2023-11-24T12:35:09.677Z,96632.25
2023-11-24T12:40:12.498Z,96618.19
2023-11-24T12:45:14.658Z,96605.41
2023-11-24T12:50:18.119Z,96578.44
2023-11-24T12:55:20.022Z,96583.19
2023-11-24T13:00:27.426Z,96567.97
2023-11-24T13:05:29.458Z,96554.16
2023-11-24T13:10:35.651Z,96550.19
2023-11-24T13:15:38.841Z,96552.69
2023-11-24T13:20:41.737Z,96551.63
2023-11-24T13:25:45.272Z,96555.16
2023-11-24T13:30:51.514Z,96581.16
2023-11-24T13:35:53.407Z,96569.28
2023-11-24T13:40:55.960Z,96565.19
2023-11-24T13:45:57.831Z,96565.09
2023-11-24T13:51:04.480Z,96560.28
2023-11-24T13:56:06.645Z,96545.34
2023-11-24T14:01:08.755Z,96543.84
2023-11-24T14:06:10.597Z,96539.28
2023-11-24T14:11:12.956Z,96541.44
2023-11-24T14:16:15.650Z,96536.94
2023-11-24T14:21:20.114Z,96528.38
2023-11-24T14:26:21.939Z,96522.09
2023-11-24T14:31:23.840Z,96512.28
2023-11-24T14:36:27.443Z,96499.16
2023-11-24T14:41:32.358Z,96510.50
2023-11-24T14:46:34.504Z,96511.91
2023-11-24T14:51:39.658Z,96514.03
2023-11-24T14:56:41.888Z,96509.34
2023-11-24T15:01:44.732Z,96510.91
2023-11-24T15:06:51.373Z,96506.66
2023-11-24T15:11:54.089Z,96496.28
2023-11-24T15:16:59.250Z,96491.72
2023-11-24T15:22:10.817Z,96486.94
2023-11-24T15:27:14.822Z,96499.41
2023-11-24T15:32:21.197Z,96500.81
2023-11-24T15:37:23.977Z,96477.69
2023-11-24T15:42:30.339Z,96478.44
2023-11-24T15:47:32.946Z,96488.47
2023-11-24T15:52:37.176Z,96480.00
2023-11-24T15:57:40.030Z,96476.19
2023-11-24T16:02:41.955Z,96490.81
2023-11-24T16:07:43.809Z,96489.31
2023-11-24T16:12:46.014Z,96484.66
2023-11-24T16:17:49.152Z,96508.31
2023-11-24T16:22:51.233Z,96511.19
2023-11-24T16:27:53.217Z,96486.81
2023-11-24T16:32:55.174Z,96475.03
2023-11-24T16:37:57.053Z,96491.03
2023-11-24T16:42:58.902Z,96484.63
2023-11-24T16:48:00.912Z,96483.34
2023-11-24T16:53:02.829Z,96474.03
2023-11-24T16:58:06.994Z,96452.59
2023-11-24T17:03:12.111Z,96448.19
2023-11-24T17:08:14.106Z,96432.69
2023-11-24T17:13:15.971Z,96432.88
2023-11-24T17:18:18.764Z,96414.66
2023-11-24T17:23:21.080Z,96404.78
2023-11-24T17:28:23.266Z,96398.31
2023-11-24T17:33:25.248Z,96391.78
2023-11-24T17:38:27.102Z,96396.53
2023-11-24T17:43:28.938Z,96385.03
2023-11-24T17:48:31.573Z,96393.00
2023-11-24T17:53:34.222Z,96387.94
2023-11-24T17:58:36.141Z,96383.19
2023-11-24T18:03:38.351Z,96385.81
2023-11-24T18:08:40.225Z,96392.72
2023-11-24T18:13:42.064Z,96385.03
2023-11-24T18:18:44.768Z,96382.34
2023-11-24T18:23:46.816Z,96386.22
2023-11-24T18:28:50.528Z,96381.72
2023-11-24T18:33:52.414Z,96381.78
2023-11-24T18:38:54.220Z,96396.75
2023-11-24T18:43:57.325Z,96402.19
2023-11-24T18:49:00.408Z,96410.78
2023-11-24T18:54:02.397Z,96395.75
2023-11-24T18:59:04.215Z,96407.66
2023-11-24T19:04:06.182Z,96391.38
2023-11-24T19:09:08.032Z,96381.72
2023-11-24T19:14:10.528Z,96376.66
2023-11-24T19:19:14.990Z,96366.34
2023-11-24T19:24:16.824Z,96358.84
2023-11-24T19:29:18.648Z,96371.84
2023-11-24T19:34:20.493Z,96365.69
2023-11-24T19:39:24.158Z,96345.81
2023-11-24T19:44:26.079Z,96343.56
2023-11-24T19:49:28.118Z,96329.81
2023-11-24T19:54:29.979Z,96322.97
2023-11-24T19:59:31.818Z,96319.19
2023-11-24T20:04:34.229Z,96308.50
2023-11-24T20:09:37.839Z,96318.19
2023-11-24T20:14:42.150Z,96301.09
2023-11-24T20:19:44.319Z,96307.31
2023-11-24T20:24:47.375Z,96311.13
2023-11-24T20:29:49.228Z,96304.88
2023-11-24T20:34:51.133Z,96301.00
2023-11-24T20:39:57.072Z,96301.97
2023-11-24T20:44:58.976Z,96301.97
2023-11-24T20:50:00.813Z,96320.72
2023-11-24T20:55:02.735Z,96309.31
2023-11-24T21:00:11.453Z,96307.91
2023-11-24T21:05:13.356Z,96300.28
2023-11-24T21:10:15.626Z,96292.66
2023-11-24T21:15:17.447Z,96301.47
2023-11-24T21:20:21.582Z,96281.78
2023-11-24T21:25:23.465Z,96295.28
2023-11-24T21:30:28.643Z,96298.84
2023-11-24T21:35:32.182Z,96296.47
2023-11-24T21:40:34.123Z,96299.22
2023-11-24T21:45:38.416Z,96292.78
2023-11-24T21:50:40.302Z,96301.91
2023-11-24T21:55:44.098Z,96299.34
2023-11-24T22:00:46.085Z,96302.41
2023-11-24T22:05:49.299Z,96300.00
2023-11-24T22:10:54.182Z,96299.16
2023-11-24T22:15:56.163Z,96302.28
2023-11-24T22:20:58.479Z,96302.66
2023-11-24T22:26:00.388Z,96301.56
2023-11-24T22:31:02.348Z,96315.78
2023-11-24T22:36:04.952Z,96308.81
2023-11-24T22:41:06.958Z,96328.34
2023-11-24T22:46:08.883Z,96333.25
2023-11-24T22:51:18.056Z,96334.19
2023-11-24T22:56:27.539Z,96334.88
2023-11-24T23:01:30.082Z,96350.88
2023-11-24T23:06:34.126Z,96362.38
2023-11-24T23:11:36.270Z,96359.50
2023-11-24T23:16:38.215Z,96368.38
2023-11-24T23:21:42.114Z,96373.81
2023-11-24T23:26:44.144Z,96390.31
2023-11-24T23:31:46.203Z,96387.06
2023-11-24T23:36:48.263Z,96396.22
2023-11-24T23:41:50.129Z,96400.81
2023-11-24T23:46:52.468Z,96391.97
2023-11-24T23:51:54.438Z,96394.75
2023-11-24T23:56:56.264Z,96413.16
